Saint-Joseph, Martinique
Current Conditions -  °F | °C
As of 6:30 AM on Saturday 22 Nov 2014 (Local Time) from TFFF Reporting Station
Scattered Clouds Scattered Clouds  
Wind Chill: 77°   Ceiling: Unl
Heat Index: 78°   Visibility: 6mi
Dew Point: 75°   Wind: 15mph
Humidity: 94%   Direction: 80°E
Pressure: 29.91"   Gusts: NA
Location:  14.67°N, 61.04°W
Report Text: TFFF 221030Z AUTO 08013KT 9999 FEW017 SCT042 25/24 Q1013
Loading
Personal Weather Stations






























Interactive Weather Map New forecast layout! Learn more

10-Day Weather Forecast

Advertisements
Track Severe Weather on mobile